Time;durP1;ratioP1;P1;durP2;ratioP2;P2;SDS_P1;SDS_P2;PMS_P1;PMS_P2;Temp;Humidity;BMP_temperature;BMP_pressure;BME280_temperature;BME280_humidity;BME280_pressure;Samples;Min_cycle;Max_cycle;Signal;HPM_P1;HPM_P2
2023/03/03 00:01:07;;;;;;;31.98;16.70;;;;;;;;;;5085989;28;20213;-72
2023/03/03 00:03:34;;;;;;;35.97;17.42;;;;;;;;;;5085796;28;20217;-71
2023/03/03 00:06:03;;;;;;;32.83;17.95;;;;;;;;;;5083529;28;20194;-71
2023/03/03 00:08:31;;;;;;;37.03;18.33;;;;;;;;;;5093017;28;20193;-72
2023/03/03 00:10:59;;;;;;;27.73;15.02;;;;;;;;;;5080223;28;20205;-72
2023/03/03 00:13:28;;;;;;;32.60;17.88;;;;;;;;;;5077423;28;20280;-72
2023/03/03 00:16:00;;;;;;;27.92;17.30;;;;;;;;;;5085943;28;20731;-72
2023/03/03 00:18:29;;;;;;;33.92;19.20;;;;;;;;;;5071434;28;20202;-72
2023/03/03 00:20:59;;;;;;;37.28;18.85;;;;;;;;;;5082305;28;20201;-72
2023/03/03 00:23:35;;;;;;;32.28;18.15;;;;;;;;;;5088270;28;20255;-71
2023/03/03 00:26:02;;;;;;;24.88;15.73;;;;;;;;;;5080461;28;20216;-72
2023/03/03 00:28:31;;;;;;;32.65;18.30;;;;;;;;;;5071371;28;20722;-72
2023/03/03 00:30:59;;;;;;;33.00;18.30;;;;;;;;;;5078224;28;20194;-72
2023/03/03 00:33:28;;;;;;;30.90;18.52;;;;;;;;;;5076507;28;20194;-72
2023/03/03 00:35:56;;;;;;;33.28;17.20;;;;;;;;;;5082110;28;20296;-72
2023/03/03 00:38:23;;;;;;;32.35;17.83;;;;;;;;;;5088385;28;20202;-72
2023/03/03 00:40:52;;;;;;;29.23;17.80;;;;;;;;;;5080334;28;20232;-73
2023/03/03 00:43:20;;;;;;;39.92;21.58;;;;;;;;;;5065365;28;20301;-72
2023/03/03 00:45:48;;;;;;;41.25;20.42;;;;;;;;;;5082193;28;20195;-73
2023/03/03 00:48:23;;;;;;;39.20;18.45;;;;;;;;;;5084088;28;20217;-72
2023/03/03 00:50:50;;;;;;;29.63;17.75;;;;;;;;;;5075287;28;20217;-72
2023/03/03 00:53:18;;;;;;;32.25;18.40;;;;;;;;;;5075612;28;20205;-73
2023/03/03 00:55:46;;;;;;;34.15;18.70;;;;;;;;;;5085286;28;20194;-72
2023/03/03 00:58:14;;;;;;;32.88;18.00;;;;;;;;;;5084259;28;20198;-72
2023/03/03 01:00:41;;;;;;;36.72;19.65;;;;;;;;;;5080109;28;20198;-72
2023/03/03 01:03:09;;;;;;;29.35;18.40;;;;;;;;;;5086411;28;20210;-73
2023/03/03 01:05:36;;;;;;;33.17;18.85;;;;;;;;;;5080766;28;20198;-72
2023/03/03 01:08:04;;;;;;;38.38;19.65;;;;;;;;;;5076551;28;20209;-72
2023/03/03 01:10:32;;;;;;;33.47;19.35;;;;;;;;;;5080937;28;20205;-72
2023/03/03 01:12:59;;;;;;;37.05;19.27;;;;;;;;;;5088522;28;20213;-72
2023/03/03 01:15:29;;;;;;;33.22;18.95;;;;;;;;;;5083299;28;20289;-72
2023/03/03 01:17:56;;;;;;;39.42;19.27;;;;;;;;;;5070982;28;20205;-73
2023/03/03 01:20:23;;;;;;;37.63;20.60;;;;;;;;;;5073361;28;20205;-73
2023/03/03 01:22:50;;;;;;;41.22;21.95;;;;;;;;;;5075283;28;20249;-70
2023/03/03 01:25:18;;;;;;;36.47;17.58;;;;;;;;;;5074549;28;20216;-72
2023/03/03 01:27:45;;;;;;;38.67;20.73;;;;;;;;;;5084533;28;20193;-72
2023/03/03 01:30:12;;;;;;;44.08;21.40;;;;;;;;;;5080162;28;20710;-72
2023/03/03 01:32:40;;;;;;;39.10;21.70;;;;;;;;;;5078068;28;20221;-73
2023/03/03 01:35:08;;;;;;;40.20;19.38;;;;;;;;;;5080349;28;20190;-73
2023/03/03 01:37:35;;;;;;;44.17;19.95;;;;;;;;;;5083311;28;20674;-72
2023/03/03 01:40:03;;;;;;;40.72;21.88;;;;;;;;;;5080157;28;20205;-73
2023/03/03 01:42:30;;;;;;;39.22;21.58;;;;;;;;;;5092619;28;20228;-72
2023/03/03 01:45:24;;;;;;;39.70;22.65;;;;;;;;;;5076979;28;20217;-72
2023/03/03 01:47:57;;;;;;;42.00;22.00;;;;;;;;;;5026883;28;20685;-72
2023/03/03 01:50:29;;;;;;;45.58;23.55;;;;;;;;;;5079779;28;20206;-72
2023/03/03 01:52:56;;;;;;;39.92;19.40;;;;;;;;;;5075922;28;20213;-72
2023/03/03 01:55:26;;;;;;;36.95;19.75;;;;;;;;;;5091102;28;20203;-72
2023/03/03 01:57:56;;;;;;;38.85;21.48;;;;;;;;;;5076922;28;20245;-72
2023/03/03 02:00:23;;;;;;;47.88;24.33;;;;;;;;;;5074345;28;20200;-72
2023/03/03 02:02:51;;;;;;;34.70;19.02;;;;;;;;;;5081660;28;20213;-73
2023/03/03 02:05:19;;;;;;;37.83;20.55;;;;;;;;;;5074315;28;20209;-72
2023/03/03 02:07:47;;;;;;;34.30;17.85;;;;;;;;;;5076587;28;20269;-73
2023/03/03 02:10:15;;;;;;;31.15;17.77;;;;;;;;;;5076690;28;20206;-72
2023/03/03 02:12:43;;;;;;;38.63;16.63;;;;;;;;;;5086561;28;20688;-72
2023/03/03 02:15:17;;;;;;;41.03;18.65;;;;;;;;;;5059144;28;20195;-72
2023/03/03 02:17:44;;;;;;;40.08;20.13;;;;;;;;;;5078819;28;20231;-72
2023/03/03 02:20:13;;;;;;;42.45;22.33;;;;;;;;;;5079088;28;20204;-73
2023/03/03 02:22:44;;;;;;;42.85;21.88;;;;;;;;;;5070816;28;20253;-73
2023/03/03 02:25:14;;;;;;;47.80;24.20;;;;;;;;;;5078668;28;20224;-72
2023/03/03 02:27:42;;;;;;;40.45;22.30;;;;;;;;;;5069524;28;20205;-73
2023/03/03 02:30:14;;;;;;;38.75;19.05;;;;;;;;;;5080137;28;20209;-73
2023/03/03 02:32:41;;;;;;;37.15;18.25;;;;;;;;;;5083091;28;20584;-72
2023/03/03 02:35:23;;;;;;;42.30;18.80;;;;;;;;;;5081898;28;20189;-72
2023/03/03 02:37:50;;;;;;;36.70;19.42;;;;;;;;;;5084761;28;20201;-72
2023/03/03 02:40:19;;;;;;;43.85;19.45;;;;;;;;;;5080187;28;20200;-72
2023/03/03 02:42:49;;;;;;;42.38;21.60;;;;;;;;;;5082827;28;20217;-73
2023/03/03 02:45:16;;;;;;;43.28;20.95;;;;;;;;;;5089223;28;20213;-73
2023/03/03 02:47:49;;;;;;;38.25;17.13;;;;;;;;;;5081689;28;20201;-72
2023/03/03 02:50:16;;;;;;;46.33;21.23;;;;;;;;;;5076739;28;20206;-72
2023/03/03 02:52:43;;;;;;;48.15;21.67;;;;;;;;;;5079344;28;20217;-72
2023/03/03 02:55:10;;;;;;;37.38;19.08;;;;;;;;;;5087024;28;20196;-72
2023/03/03 02:57:37;;;;;;;36.70;19.15;;;;;;;;;;5070748;28;20201;-72
2023/03/03 03:00:07;;;;;;;41.20;20.60;;;;;;;;;;5080608;28;20194;-72
2023/03/03 03:02:34;;;;;;;38.08;19.23;;;;;;;;;;5078472;28;20213;-72
2023/03/03 03:05:01;;;;;;;45.83;21.27;;;;;;;;;;5089342;28;20225;-72
2023/03/03 03:07:28;;;;;;;36.58;18.67;;;;;;;;;;5080703;28;20197;-73
2023/03/03 03:09:55;;;;;;;49.60;22.77;;;;;;;;;;5075018;28;20201;-72
2023/03/03 03:12:22;;;;;;;47.50;22.35;;;;;;;;;;5077336;28;20229;-72
2023/03/03 03:14:49;;;;;;;39.60;20.17;;;;;;;;;;5066427;28;20552;-73
2023/03/03 03:17:18;;;;;;;51.38;23.17;;;;;;;;;;5079144;28;20624;-72
2023/03/03 03:19:45;;;;;;;41.40;21.92;;;;;;;;;;5086984;28;20194;-72
2023/03/03 03:22:12;;;;;;;44.15;22.70;;;;;;;;;;5072548;28;20730;-72
2023/03/03 03:24:39;;;;;;;38.53;20.17;;;;;;;;;;5076434;28;20241;-72
2023/03/03 03:27:06;;;;;;;42.85;19.30;;;;;;;;;;5074300;28;20741;-72
2023/03/03 03:29:33;;;;;;;45.55;19.50;;;;;;;;;;5074489;28;20560;-73
2023/03/03 03:32:00;;;;;;;49.75;23.83;;;;;;;;;;5078104;28;20228;-72
2023/03/03 03:34:29;;;;;;;44.83;21.92;;;;;;;;;;5084100;28;20186;-72
2023/03/03 03:36:56;;;;;;;45.85;23.33;;;;;;;;;;5074440;28;20205;-73
2023/03/03 03:39:23;;;;;;;49.67;22.42;;;;;;;;;;5081827;28;20197;-73
2023/03/03 03:41:50;;;;;;;44.25;20.52;;;;;;;;;;5081959;28;20221;-73
2023/03/03 03:44:17;;;;;;;45.20;23.50;;;;;;;;;;5071977;28;20222;-72
2023/03/03 03:46:44;;;;;;;37.65;18.60;;;;;;;;;;5076689;28;20193;-72
2023/03/03 03:49:11;;;;;;;47.53;20.77;;;;;;;;;;5082669;28;20197;-72
2023/03/03 03:51:40;;;;;;;41.63;20.10;;;;;;;;;;5075247;28;20220;-72
2023/03/03 03:54:08;;;;;;;44.97;23.80;;;;;;;;;;5075046;28;20193;-74
2023/03/03 03:56:35;;;;;;;42.15;21.00;;;;;;;;;;5075733;28;20197;-73
2023/03/03 03:59:02;;;;;;;44.67;22.27;;;;;;;;;;5086465;28;20200;-72
2023/03/03 04:01:29;;;;;;;47.53;23.17;;;;;;;;;;5078814;28;20209;-73
2023/03/03 04:03:56;;;;;;;38.00;20.50;;;;;;;;;;5086167;28;20207;-73
2023/03/03 04:06:23;;;;;;;39.97;19.95;;;;;;;;;;5084410;28;20200;-73
2023/03/03 04:08:52;;;;;;;35.90;16.13;;;;;;;;;;5081471;28;20566;-73
2023/03/03 04:11:19;;;;;;;40.35;21.45;;;;;;;;;;5072982;28;20212;-73
2023/03/03 04:13:46;;;;;;;42.22;20.15;;;;;;;;;;5082056;28;20681;-73
2023/03/03 04:16:13;;;;;;;45.28;21.85;;;;;;;;;;5070711;28;20660;-73
2023/03/03 04:18:40;;;;;;;40.05;19.65;;;;;;;;;;5085779;28;20212;-72
2023/03/03 04:21:07;;;;;;;49.42;20.92;;;;;;;;;;5083999;28;20203;-72
2023/03/03 04:23:34;;;;;;;41.03;21.55;;;;;;;;;;5085837;28;20189;-72
2023/03/03 04:26:02;;;;;;;45.53;21.98;;;;;;;;;;5087731;28;20708;-71
2023/03/03 04:28:29;;;;;;;39.20;21.20;;;;;;;;;;5080510;28;20575;-72
2023/03/03 04:30:57;;;;;;;40.30;20.35;;;;;;;;;;5082156;28;20198;-73
2023/03/03 04:33:24;;;;;;;41.20;21.50;;;;;;;;;;5074263;22;20232;-73
2023/03/03 04:35:51;;;;;;;38.72;18.70;;;;;;;;;;5068524;28;20198;-73
2023/03/03 04:38:18;;;;;;;41.13;18.35;;;;;;;;;;5065599;28;20198;-73
2023/03/03 04:40:45;;;;;;;39.92;20.20;;;;;;;;;;5069199;28;20190;-73
2023/03/03 04:43:14;;;;;;;42.60;21.83;;;;;;;;;;5046849;28;20230;-73
2023/03/03 04:45:41;;;;;;;48.03;20.33;;;;;;;;;;5049859;28;20218;-73
2023/03/03 04:48:08;;;;;;;39.47;22.75;;;;;;;;;;5053399;28;20203;-73
2023/03/03 04:50:35;;;;;;;44.92;21.88;;;;;;;;;;5050096;28;20602;-73
2023/03/03 04:53:02;;;;;;;38.72;18.65;;;;;;;;;;5039205;28;20215;-73
2023/03/03 04:55:29;;;;;;;43.65;21.95;;;;;;;;;;5047776;28;20195;-73
2023/03/03 04:57:56;;;;;;;39.05;18.33;;;;;;;;;;5035906;28;20199;-73
2023/03/03 05:00:25;;;;;;;41.45;20.20;;;;;;;;;;5039746;28;20286;-73
2023/03/03 05:02:52;;;;;;;42.92;19.08;;;;;;;;;;5035272;28;20223;-73
2023/03/03 05:05:19;;;;;;;39.97;17.73;;;;;;;;;;5043193;28;20215;-73
2023/03/03 05:07:46;;;;;;;43.30;20.95;;;;;;;;;;5045609;28;20210;-73
2023/03/03 05:10:13;;;;;;;33.17;17.60;;;;;;;;;;5052412;28;20194;-73
2023/03/03 05:12:40;;;;;;;37.88;20.17;;;;;;;;;;5050786;28;20226;-73
2023/03/03 05:15:08;;;;;;;38.03;20.02;;;;;;;;;;5045498;28;20206;-74
2023/03/03 05:17:36;;;;;;;35.10;18.08;;;;;;;;;;5053050;28;20570;-73
2023/03/03 05:20:04;;;;;;;38.65;18.95;;;;;;;;;;5043100;28;20210;-73
2023/03/03 05:22:31;;;;;;;40.35;17.10;;;;;;;;;;5048108;28;20282;-73
2023/03/03 05:24:58;;;;;;;37.95;19.27;;;;;;;;;;5031029;28;20558;-73
2023/03/03 05:27:25;;;;;;;40.75;21.98;;;;;;;;;;5044665;28;20203;-73
2023/03/03 05:29:52;;;;;;;46.53;21.35;;;;;;;;;;5048519;28;20190;-73
2023/03/03 05:32:20;;;;;;;43.63;19.90;;;;;;;;;;5042405;28;20592;-73
2023/03/03 05:34:48;;;;;;;37.88;18.83;;;;;;;;;;5042834;28;20197;-73
2023/03/03 05:37:15;;;;;;;38.75;20.42;;;;;;;;;;5033900;28;20238;-73
2023/03/03 05:39:43;;;;;;;32.75;17.58;;;;;;;;;;5025092;28;20214;-73
2023/03/03 05:42:12;;;;;;;41.45;18.58;;;;;;;;;;5051328;28;20222;-73
2023/03/03 05:44:39;;;;;;;40.67;20.88;;;;;;;;;;5027572;28;20585;-73
2023/03/03 05:47:06;;;;;;;40.55;19.92;;;;;;;;;;5041163;28;20198;-73
2023/03/03 05:49:33;;;;;;;40.08;19.58;;;;;;;;;;5050295;28;20198;-73
2023/03/03 05:52:02;;;;;;;40.42;19.75;;;;;;;;;;5023360;28;20402;-73
2023/03/03 05:54:29;;;;;;;36.65;17.90;;;;;;;;;;5029353;28;20201;-74
2023/03/03 05:56:56;;;;;;;39.10;21.10;;;;;;;;;;5045441;28;20704;-74
2023/03/03 05:59:24;;;;;;;51.70;22.42;;;;;;;;;;5035221;28;20225;-73
2023/03/03 06:01:51;;;;;;;45.63;21.55;;;;;;;;;;5046961;28;20227;-73
2023/03/03 06:04:18;;;;;;;39.40;21.80;;;;;;;;;;5027598;28;20194;-73
2023/03/03 06:06:45;;;;;;;46.25;23.05;;;;;;;;;;5052087;28;20215;-74
2023/03/03 06:09:14;;;;;;;38.45;21.30;;;;;;;;;;5034883;28;20204;-73
2023/03/03 06:11:41;;;;;;;46.97;22.05;;;;;;;;;;5041075;28;20281;-73
2023/03/03 06:14:08;;;;;;;38.38;19.30;;;;;;;;;;5037938;28;20591;-73
2023/03/03 06:16:35;;;;;;;36.00;19.35;;;;;;;;;;5044218;28;20183;-73
2023/03/03 06:19:02;;;;;;;41.70;21.05;;;;;;;;;;5017533;28;20203;-74
2023/03/03 06:21:29;;;;;;;43.95;20.90;;;;;;;;;;5051552;28;20195;-73
2023/03/03 06:23:56;;;;;;;45.65;21.77;;;;;;;;;;5042109;28;20199;-73
2023/03/03 06:26:25;;;;;;;39.50;20.27;;;;;;;;;;5051411;28;20210;-74
2023/03/03 06:28:54;;;;;;;38.15;19.73;;;;;;;;;;5042991;28;20234;-73
2023/03/03 06:31:21;;;;;;;42.65;23.48;;;;;;;;;;5035900;28;20222;-74
2023/03/03 06:33:48;;;;;;;47.58;21.75;;;;;;;;;;5038532;28;20329;-74
2023/03/03 06:36:15;;;;;;;44.88;23.15;;;;;;;;;;5050515;28;20197;-74
2023/03/03 06:38:42;;;;;;;50.25;23.50;;;;;;;;;;5037900;28;20218;-74
2023/03/03 06:41:09;;;;;;;39.20;22.10;;;;;;;;;;5049008;28;20201;-74
2023/03/03 06:43:38;;;;;;;43.97;19.95;;;;;;;;;;5044524;28;20215;-74
2023/03/03 06:46:06;;;;;;;47.20;19.33;;;;;;;;;;5049805;28;20215;-74
2023/03/03 06:48:33;;;;;;;49.35;22.70;;;;;;;;;;5043597;28;20196;-74
2023/03/03 06:51:02;;;;;;;53.95;25.33;;;;;;;;;;5040175;28;20200;-74
2023/03/03 06:53:29;;;;;;;43.30;23.10;;;;;;;;;;5046828;28;20230;-76
2023/03/03 06:55:57;;;;;;;42.28;21.30;;;;;;;;;;5036825;28;20538;-74
2023/03/03 06:58:24;;;;;;;41.88;22.15;;;;;;;;;;5043286;28;20194;-73
2023/03/03 07:00:54;;;;;;;41.10;21.00;;;;;;;;;;5048818;28;20244;-74
2023/03/03 07:03:23;;;;;;;42.92;21.52;;;;;;;;;;5034707;28;20214;-74
2023/03/03 07:05:52;;;;;;;45.35;23.67;;;;;;;;;;5045135;28;20846;-74
2023/03/03 07:08:20;;;;;;;45.58;23.38;;;;;;;;;;5035923;28;20236;-74
2023/03/03 07:10:48;;;;;;;53.22;23.20;;;;;;;;;;5051322;28;20217;-74
2023/03/03 07:13:20;;;;;;;45.22;21.58;;;;;;;;;;5041665;28;20296;-74
2023/03/03 07:15:47;;;;;;;39.42;20.45;;;;;;;;;;5051125;28;20277;-74
2023/03/03 07:18:25;;;;;;;39.38;19.63;;;;;;;;;;5033820;28;20209;-74
2023/03/03 07:20:52;;;;;;;44.75;22.00;;;;;;;;;;5050665;28;20194;-73
2023/03/03 07:23:21;;;;;;;37.03;18.60;;;;;;;;;;5040526;28;20707;-74
2023/03/03 07:25:48;;;;;;;43.70;19.98;;;;;;;;;;5050335;28;20214;-74
2023/03/03 07:28:21;;;;;;;42.58;19.58;;;;;;;;;;5027501;28;20207;-74
2023/03/03 07:30:48;;;;;;;44.15;20.13;;;;;;;;;;5012280;28;20204;-74
2023/03/03 07:33:19;;;;;;;44.67;23.15;;;;;;;;;;5043172;28;20230;-74
2023/03/03 07:35:48;;;;;;;43.38;22.48;;;;;;;;;;5055251;28;20191;-74
2023/03/03 07:38:18;;;;;;;41.58;20.48;;;;;;;;;;5037223;28;20564;-74
2023/03/03 07:40:48;;;;;;;46.60;21.83;;;;;;;;;;5035927;28;20204;-74
2023/03/03 07:43:28;;;;;;;40.67;21.40;;;;;;;;;;5043943;28;20292;-74
2023/03/03 07:45:57;;;;;;;42.95;21.02;;;;;;;;;;5026286;28;20222;-74
2023/03/03 07:48:25;;;;;;;44.10;21.83;;;;;;;;;;5054977;28;20197;-74
2023/03/03 07:50:54;;;;;;;38.22;19.20;;;;;;;;;;5050681;28;20199;-74
2023/03/03 07:53:25;;;;;;;39.75;21.75;;;;;;;;;;5045505;28;20222;-74
2023/03/03 07:55:52;;;;;;;38.90;21.30;;;;;;;;;;5032899;28;20195;-74
2023/03/03 07:58:22;;;;;;;37.72;18.63;;;;;;;;;;5038055;28;20273;-74
2023/03/03 08:01:14;;;;;;;41.92;21.20;;;;;;;;;;5038202;28;20289;-74
2023/03/03 08:03:43;;;;;;;39.05;18.85;;;;;;;;;;5044001;28;20218;-74
2023/03/03 08:06:25;;;;;;;43.80;21.25;;;;;;;;;;5035647;28;20219;-74
2023/03/03 08:08:52;;;;;;;51.40;24.42;;;;;;;;;;5037829;28;20210;-74
2023/03/03 08:11:20;;;;;;;46.63;23.60;;;;;;;;;;5039265;28;20206;-73
2023/03/03 08:13:47;;;;;;;42.08;22.23;;;;;;;;;;5015601;28;20317;-74
2023/03/03 08:16:36;;;;;;;40.60;21.38;;;;;;;;;;5038629;28;20195;-74
2023/03/03 08:19:04;;;;;;;48.60;25.10;;;;;;;;;;5042364;28;20196;-74
2023/03/03 08:21:34;;;;;;;44.78;24.42;;;;;;;;;;5037812;28;20203;-71
2023/03/03 08:24:01;;;;;;;48.63;24.25;;;;;;;;;;5044989;28;20210;-73
2023/03/03 08:26:28;;;;;;;42.33;20.58;;;;;;;;;;5022610;28;20211;-74
2023/03/03 08:28:55;;;;;;;47.10;22.98;;;;;;;;;;5021153;28;20661;-74
2023/03/03 08:31:22;;;;;;;37.30;21.60;;;;;;;;;;5053515;28;20197;-74
2023/03/03 08:33:49;;;;;;;42.58;21.63;;;;;;;;;;5044156;28;20227;-74
2023/03/03 08:36:16;;;;;;;38.55;19.98;;;;;;;;;;5040643;28;20194;-74
2023/03/03 08:38:45;;;;;;;44.17;21.77;;;;;;;;;;5046159;28;20310;-72
2023/03/03 08:41:12;;;;;;;36.70;19.83;;;;;;;;;;5038963;28;20221;-74
2023/03/03 08:43:39;;;;;;;38.67;18.02;;;;;;;;;;5034820;28;20221;-72
2023/03/03 08:46:21;;;;;;;44.92;22.15;;;;;;;;;;5043675;28;20222;-72
2023/03/03 08:48:50;;;;;;;39.38;21.70;;;;;;;;;;5044985;28;20222;-73
2023/03/03 08:54:53;;;;;;;;;;;;;;;;;;;;;
2023/03/03 08:57:26;;;;;;;37.40;20.90;;;;;;;;;;5058112;28;20199;-72
2023/03/03 08:59:53;;;;;;;42.55;19.40;;;;;;;;;;5055737;28;20558;-71
2023/03/03 09:09:26;;;;;;;42.80;23.00;;;;;;;;;;4932637;29;20669;-72
2023/03/03 09:11:59;;;;;;;40.47;18.83;;;;;;;;;;4972381;22;20229;-71
2023/03/03 09:47:41;;;;;;;36.05;18.42;;;;;;;;;;5007910;28;20231;-70
2023/03/03 09:53:22;;;;;;;32.83;17.83;;;;;;;;;;5011170;28;20219;-70
2023/03/03 09:55:56;;;;;;;39.35;18.30;;;;;;;;;;5012257;28;20235;-74
2023/03/03 09:58:32;;;;;;;38.88;18.25;;;;;;;;;;5012716;28;20258;-72
2023/03/03 10:01:02;;;;;;;34.30;18.70;;;;;;;;;;5015444;28;20227;-71
2023/03/03 10:03:39;;;;;;;32.92;15.60;;;;;;;;;;5028644;28;20211;-74
2023/03/03 10:06:12;;;;;;;35.28;17.55;;;;;;;;;;5012244;28;20215;-72
2023/03/03 10:08:54;;;;;;;33.70;17.55;;;;;;;;;;5012054;28;20204;-71
2023/03/03 10:11:26;;;;;;;36.90;16.83;;;;;;;;;;5031799;28;20215;-70
2023/03/03 10:14:12;;;;;;;30.67;16.25;;;;;;;;;;5032375;28;20203;-68
2023/03/03 10:16:47;;;;;;;31.58;17.10;;;;;;;;;;5023052;28;20532;-75
2023/03/03 10:19:20;;;;;;;31.23;17.77;;;;;;;;;;5018379;28;20297;-71
2023/03/03 10:21:51;;;;;;;33.97;16.73;;;;;;;;;;5032961;28;20223;-72
2023/03/03 10:24:25;;;;;;;27.90;15.27;;;;;;;;;;5037784;28;20642;-73
2023/03/03 10:27:01;;;;;;;33.63;16.05;;;;;;;;;;5027958;28;20222;-71
2023/03/03 10:29:33;;;;;;;32.20;18.00;;;;;;;;;;5029455;28;20575;-71
2023/03/03 10:32:15;;;;;;;37.85;17.40;;;;;;;;;;5039815;28;20225;-73
2023/03/03 10:34:52;;;;;;;36.03;17.48;;;;;;;;;;5025730;28;20581;-72
2023/03/03 10:37:23;;;;;;;33.90;15.98;;;;;;;;;;5036818;28;20253;-73
2023/03/03 10:39:57;;;;;;;35.30;16.98;;;;;;;;;;5051048;28;20572;-73
2023/03/03 10:42:37;;;;;;;33.20;17.75;;;;;;;;;;5034409;28;20227;-73
2023/03/03 10:45:13;;;;;;;31.17;16.45;;;;;;;;;;5048242;28;20199;-73
2023/03/03 10:47:52;;;;;;;35.72;17.45;;;;;;;;;;5051705;28;20584;-73
2023/03/03 10:50:22;;;;;;;40.00;17.30;;;;;;;;;;5027173;28;20191;-72
2023/03/03 10:52:53;;;;;;;35.72;16.35;;;;;;;;;;5019904;28;20224;-74
2023/03/03 11:01:42;;;;;;;41.10;18.75;;;;;;;;;;4964811;28;20534;-71
2023/03/03 11:04:15;;;;;;;44.22;19.73;;;;;;;;;;5029457;28;20194;-74
2023/03/03 11:06:46;;;;;;;42.33;19.83;;;;;;;;;;5035833;28;20218;-74
2023/03/03 11:09:31;;;;;;;42.97;21.30;;;;;;;;;;5055635;28;20294;-72
2023/03/03 11:12:01;;;;;;;37.13;19.55;;;;;;;;;;5041934;28;20222;-73
2023/03/03 11:14:31;;;;;;;41.17;20.40;;;;;;;;;;5055095;28;20201;-71
2023/03/03 11:17:01;;;;;;;36.20;19.38;;;;;;;;;;5039987;28;20564;-72
2023/03/03 11:19:37;;;;;;;34.97;18.17;;;;;;;;;;5041727;28;20201;-71
2023/03/03 11:22:09;;;;;;;36.20;17.90;;;;;;;;;;5030768;28;20737;-72
2023/03/03 11:24:47;;;;;;;43.42;20.80;;;;;;;;;;5042967;28;20226;-72
2023/03/03 11:27:20;;;;;;;39.05;19.15;;;;;;;;;;5042533;28;20220;-72
2023/03/03 11:29:55;;;;;;;43.65;20.75;;;;;;;;;;5050417;22;20206;-72
2023/03/03 11:32:27;;;;;;;44.65;20.90;;;;;;;;;;5029722;28;20218;-72
2023/03/03 11:34:58;;;;;;;40.65;20.17;;;;;;;;;;5040292;28;20231;-72
2023/03/03 11:37:29;;;;;;;39.88;20.80;;;;;;;;;;5032259;28;20225;-72
2023/03/03 11:40:01;;;;;;;41.13;20.35;;;;;;;;;;5033590;28;20235;-72
2023/03/03 11:42:33;;;;;;;43.03;22.10;;;;;;;;;;5044885;28;20218;-73
2023/03/03 11:45:01;;;;;;;38.60;20.92;;;;;;;;;;5042042;28;20201;-72
2023/03/03 11:47:30;;;;;;;42.97;21.25;;;;;;;;;;5047885;28;20202;-72
2023/03/03 11:50:01;;;;;;;34.17;17.88;;;;;;;;;;5044632;28;20223;-71
2023/03/03 11:52:32;;;;;;;43.05;20.88;;;;;;;;;;5041290;28;20680;-73
2023/03/03 11:55:04;;;;;;;47.67;22.15;;;;;;;;;;5025591;28;20202;-72
2023/03/03 11:57:35;;;;;;;40.50;22.73;;;;;;;;;;5035679;28;20218;-73
2023/03/03 12:00:13;;;;;;;41.28;22.48;;;;;;;;;;5046285;28;20221;-73
2023/03/03 12:02:46;;;;;;;44.67;22.23;;;;;;;;;;5039703;28;20205;-72
2023/03/03 12:05:14;;;;;;;44.50;20.80;;;;;;;;;;5042582;28;20675;-72
2023/03/03 12:07:44;;;;;;;37.20;20.77;;;;;;;;;;5044656;28;20195;-73
2023/03/03 12:10:20;;;;;;;35.28;19.60;;;;;;;;;;5038204;28;20222;-72
2023/03/03 12:12:53;;;;;;;40.90;20.17;;;;;;;;;;5027856;28;20270;-72
2023/03/03 12:15:26;;;;;;;34.65;17.40;;;;;;;;;;5047613;28;20682;-72
2023/03/03 12:18:10;;;;;;;37.58;19.23;;;;;;;;;;5049638;28;20218;-72
2023/03/03 12:20:44;;;;;;;41.30;20.75;;;;;;;;;;5042917;28;20214;-73
2023/03/03 12:23:15;;;;;;;47.15;21.80;;;;;;;;;;5038299;28;20207;-72
2023/03/03 12:25:44;;;;;;;42.90;21.42;;;;;;;;;;5027134;28;20210;-72
2023/03/03 12:28:14;;;;;;;43.10;20.83;;;;;;;;;;5026943;28;20199;-72
2023/03/03 12:30:55;;;;;;;41.47;21.40;;;;;;;;;;5041305;28;20615;-71
2023/03/03 12:33:28;;;;;;;45.03;21.33;;;;;;;;;;5013142;28;20196;-71
2023/03/03 12:36:00;;;;;;;46.60;22.05;;;;;;;;;;5034234;28;20203;-72
2023/03/03 12:38:32;;;;;;;38.72;19.08;;;;;;;;;;5034973;28;20218;-72
2023/03/03 12:41:04;;;;;;;37.70;18.73;;;;;;;;;;5039395;28;20584;-73
2023/03/03 12:43:40;;;;;;;39.30;18.00;;;;;;;;;;5030023;28;20256;-71
2023/03/03 12:46:12;;;;;;;34.50;15.90;;;;;;;;;;5036400;28;20191;-72
2023/03/03 12:48:41;;;;;;;33.03;16.38;;;;;;;;;;5046137;28;20221;-74
2023/03/03 12:51:14;;;;;;;31.08;16.80;;;;;;;;;;5033389;28;20584;-72
2023/03/03 12:53:46;;;;;;;31.73;15.48;;;;;;;;;;5039573;28;20195;-71
2023/03/03 12:56:18;;;;;;;30.67;14.65;;;;;;;;;;5039411;28;20309;-71
2023/03/03 12:58:50;;;;;;;25.45;14.73;;;;;;;;;;5031654;28;20223;-73
2023/03/03 13:01:27;;;;;;;29.65;14.90;;;;;;;;;;5044664;28;20265;-71
2023/03/03 13:03:59;;;;;;;30.27;15.20;;;;;;;;;;5017198;28;20201;-71
2023/03/03 13:06:29;;;;;;;33.58;15.80;;;;;;;;;;5027485;28;20634;-72
2023/03/03 13:09:01;;;;;;;29.83;15.43;;;;;;;;;;5042236;28;20196;-73
2023/03/03 13:11:46;;;;;;;32.03;15.30;;;;;;;;;;5043973;28;20569;-72
2023/03/03 13:14:18;;;;;;;30.10;15.90;;;;;;;;;;5048428;28;20209;-72
2023/03/03 13:16:48;;;;;;;31.42;14.07;;;;;;;;;;5032862;28;20208;-72
2023/03/03 13:19:17;;;;;;;27.23;14.35;;;;;;;;;;5029149;28;20577;-72
2023/03/03 13:21:48;;;;;;;28.90;15.52;;;;;;;;;;5040036;28;20221;-72
2023/03/03 13:24:18;;;;;;;32.90;14.57;;;;;;;;;;5036906;28;20199;-72
2023/03/03 13:26:50;;;;;;;35.17;17.35;;;;;;;;;;5031793;28;20206;-73
2023/03/03 13:29:21;;;;;;;30.02;14.82;;;;;;;;;;5043592;28;20565;-73
2023/03/03 13:31:50;;;;;;;33.33;15.45;;;;;;;;;;5017536;28;20254;-74
2023/03/03 13:34:24;;;;;;;33.03;15.68;;;;;;;;;;5044265;28;20186;-71
2023/03/03 13:36:54;;;;;;;31.25;16.52;;;;;;;;;;5044563;28;20568;-71
2023/03/03 13:39:23;;;;;;;32.13;16.10;;;;;;;;;;5042521;28;20191;-71
2023/03/03 13:41:56;;;;;;;30.58;15.85;;;;;;;;;;5052339;28;20305;-70
2023/03/03 13:44:25;;;;;;;35.70;16.88;;;;;;;;;;5038025;28;20249;-71
2023/03/03 13:47:00;;;;;;;32.42;16.67;;;;;;;;;;5044118;28;20563;-72
2023/03/03 13:49:33;;;;;;;32.15;15.23;;;;;;;;;;5021812;28;20201;-70
2023/03/03 13:52:03;;;;;;;35.47;16.65;;;;;;;;;;5039657;28;20199;-70
2023/03/03 13:54:54;;;;;;;39.90;17.80;;;;;;;;;;5029512;28;20199;-71
2023/03/03 13:57:28;;;;;;;38.33;18.23;;;;;;;;;;5031556;28;20215;-71
2023/03/03 14:00:01;;;;;;;42.83;18.80;;;;;;;;;;5019778;28;20624;-72
2023/03/03 14:02:41;;;;;;;44.03;19.10;;;;;;;;;;5044448;28;20253;-73
2023/03/03 14:05:14;;;;;;;47.05;21.65;;;;;;;;;;5023007;28;20695;-73
2023/03/03 14:07:43;;;;;;;45.83;21.88;;;;;;;;;;5043850;28;20197;-73
2023/03/03 14:10:15;;;;;;;47.53;20.35;;;;;;;;;;5031519;28;20581;-75
2023/03/03 14:12:48;;;;;;;46.97;21.50;;;;;;;;;;5042061;28;20290;-74
2023/03/03 14:15:22;;;;;;;47.85;21.33;;;;;;;;;;5026816;28;20192;-75
2023/03/03 14:18:02;;;;;;;54.72;22.67;;;;;;;;;;5038380;28;20300;-75
2023/03/03 14:20:31;;;;;;;55.25;24.67;;;;;;;;;;5038652;28;20570;-74
2023/03/03 14:23:00;;;;;;;55.00;25.40;;;;;;;;;;5034064;28;20211;-74
2023/03/03 14:25:27;;;;;;;56.85;24.05;;;;;;;;;;5043818;28;20194;-74
2023/03/03 14:28:10;;;;;;;52.72;23.70;;;;;;;;;;5033339;28;20227;-74
2023/03/03 14:30:38;;;;;;;49.53;21.20;;;;;;;;;;5035873;28;20251;-73
2023/03/03 14:33:17;;;;;;;52.20;20.42;;;;;;;;;;5047370;28;20202;-73
2023/03/03 14:35:49;;;;;;;51.30;20.65;;;;;;;;;;5044084;28;20198;-73
2023/03/03 14:38:17;;;;;;;54.70;22.95;;;;;;;;;;5043163;28;20215;-72
2023/03/03 14:40:45;;;;;;;56.00;24.35;;;;;;;;;;5045064;28;20214;-73
2023/03/03 14:43:25;;;;;;;54.08;21.50;;;;;;;;;;5043091;28;20222;-71
2023/03/03 14:45:52;;;;;;;46.75;20.25;;;;;;;;;;5038145;28;20203;-72
2023/03/03 14:48:20;;;;;;;59.75;23.05;;;;;;;;;;5023835;28;20198;-74
2023/03/03 14:50:50;;;;;;;57.78;23.40;;;;;;;;;;5013808;28;20234;-72
2023/03/03 14:53:22;;;;;;;53.15;20.83;;;;;;;;;;5041926;28;20198;-71
2023/03/03 14:55:50;;;;;;;48.72;19.73;;;;;;;;;;5051381;28;20688;-72
2023/03/03 14:58:32;;;;;;;52.72;22.17;;;;;;;;;;5036850;28;20211;-71
2023/03/03 15:01:24;;;;;;;54.00;21.48;;;;;;;;;;5031173;28;20227;-71
2023/03/03 15:03:58;;;;;;;47.83;19.65;;;;;;;;;;5014855;28;20656;-73
2023/03/03 15:06:29;;;;;;;48.00;20.00;;;;;;;;;;5031288;28;20674;-72
2023/03/03 15:08:56;;;;;;;48.60;19.10;;;;;;;;;;5031696;28;20188;-73
2023/03/03 15:11:27;;;;;;;41.72;16.40;;;;;;;;;;5031327;28;20222;-72
2023/03/03 15:14:04;;;;;;;57.53;22.08;;;;;;;;;;5030294;28;20671;-73
2023/03/03 15:16:34;;;;;;;42.40;17.88;;;;;;;;;;5031701;28;20199;-72
2023/03/03 15:19:19;;;;;;;54.45;20.98;;;;;;;;;;5035968;28;20214;-72
2023/03/03 15:21:52;;;;;;;48.15;19.40;;;;;;;;;;5031221;28;20302;-72
2023/03/03 15:24:22;;;;;;;45.78;19.15;;;;;;;;;;5025215;28;20563;-71
2023/03/03 15:26:53;;;;;;;49.83;17.60;;;;;;;;;;5041272;28;20218;-71
2023/03/03 15:29:26;;;;;;;46.38;19.45;;;;;;;;;;5033253;28;20194;-72